Terminal Aerodrome Forecast
Issued by NWS Cleveland, OH

Home | Current Version | Previous Version | Text Only | Print | Product List | Glossary Off
Versions: 1 2 3 4 5 6 7 8 9 10 11 12 13 14 15 16

072
FTUS41 KCLE 271737
TAFERI
TAF
KERI 271737Z 2718/2818 03010KT P6SM SCT250
     FM280200 06008KT P6SM BKN250
     FM281000 07012G20KT P6SM OVC050
     FM281700 07018G28KT P6SM VCSH OVC015=

USA.gov is the U.S. government's official web portal to all federal, state and local government web resources and services.